sensor_id;sensor_type;location;lat;lon;timestamp;pressure;altitude;pressure_sealevel;temperature;humidity
61742;BME280;47650;49.848;9.620;2023-03-15T00:01:20;99137.72;;;2.93;98.71
61742;BME280;47650;49.848;9.620;2023-03-15T00:04:00;99169.91;;;3.06;99.09
61742;BME280;47650;49.848;9.620;2023-03-15T00:06:25;99190.47;;;3.12;99.08
61742;BME280;47650;49.848;9.620;2023-03-15T00:08:52;99198.22;;;3.14;98.67
61742;BME280;47650;49.848;9.620;2023-03-15T00:11:18;99195.03;;;3.22;98.77
61742;BME280;47650;49.848;9.620;2023-03-15T00:13:48;99194.66;;;3.02;98.31
61742;BME280;47650;49.848;9.620;2023-03-15T00:16:21;99189.66;;;2.73;98.33
61742;BME280;47650;49.848;9.620;2023-03-15T00:19:03;99208.31;;;2.81;98.68
61742;BME280;47650;49.848;9.620;2023-03-15T00:21:30;99209.03;;;2.96;99.76
61742;BME280;47650;49.848;9.620;2023-03-15T00:23:56;99223.56;;;3.00;99.59
61742;BME280;47650;49.848;9.620;2023-03-15T00:26:24;99195.31;;;2.93;99.66
61742;BME280;47650;49.848;9.620;2023-03-15T00:28:55;99185.28;;;2.74;99.66
61742;BME280;47650;49.848;9.620;2023-03-15T00:31:22;99223.59;;;2.75;98.93
61742;BME280;47650;49.848;9.620;2023-03-15T00:33:50;99229.16;;;2.96;99.92
61742;BME280;47650;49.848;9.620;2023-03-15T00:36:18;99197.50;;;2.73;99.54
61742;BME280;47650;49.848;9.620;2023-03-15T00:38:48;99231.13;;;2.79;99.54
61742;BME280;47650;49.848;9.620;2023-03-15T00:41:21;99204.44;;;2.74;100.00
61742;BME280;47650;49.848;9.620;2023-03-15T00:43:47;99231.00;;;2.94;99.84
61742;BME280;47650;49.848;9.620;2023-03-15T00:46:13;99212.41;;;2.86;99.88
61742;BME280;47650;49.848;9.620;2023-03-15T00:48:51;99216.25;;;2.93;99.63
61742;BME280;47650;49.848;9.620;2023-03-15T00:51:19;99228.09;;;2.98;99.32
61742;BME280;47650;49.848;9.620;2023-03-15T00:53:46;99243.50;;;3.03;98.67
61742;BME280;47650;49.848;9.620;2023-03-15T00:56:15;99237.13;;;2.94;98.02
61742;BME280;47650;49.848;9.620;2023-03-15T00:58:44;99239.41;;;2.86;97.03
61742;BME280;47650;49.848;9.620;2023-03-15T01:01:15;99250.06;;;2.57;97.69
61742;BME280;47650;49.848;9.620;2023-03-15T01:03:43;99210.00;;;2.57;98.99
61742;BME280;47650;49.848;9.620;2023-03-15T01:06:18;99255.44;;;2.69;99.37
61742;BME280;47650;49.848;9.620;2023-03-15T01:08:45;99262.56;;;2.79;99.27
61742;BME280;47650;49.848;9.620;2023-03-15T01:11:16;99272.19;;;2.79;99.44
61742;BME280;47650;49.848;9.620;2023-03-15T01:13:42;99263.69;;;2.62;99.60
61742;BME280;47650;49.848;9.620;2023-03-15T01:16:12;99254.81;;;2.65;99.49
61742;BME280;47650;49.848;9.620;2023-03-15T01:18:38;99231.13;;;2.41;99.23
61742;BME280;47650;49.848;9.620;2023-03-15T01:21:11;99273.97;;;2.53;97.60
61742;BME280;47650;49.848;9.620;2023-03-15T01:23:44;99264.81;;;2.45;98.15
61742;BME280;47650;49.848;9.620;2023-03-15T01:26:22;99281.47;;;2.44;97.38
61742;BME280;47650;49.848;9.620;2023-03-15T01:28:47;99281.31;;;2.33;96.86
61742;BME280;47650;49.848;9.620;2023-03-15T01:31:18;99214.69;;;1.86;98.22
61742;BME280;47650;49.848;9.620;2023-03-15T01:33:50;99296.28;;;2.31;98.05
61742;BME280;47650;49.848;9.620;2023-03-15T01:36:24;99300.63;;;2.18;97.73
61742;BME280;47650;49.848;9.620;2023-03-15T01:38:50;99176.41;;;1.30;97.43
61742;BME280;47650;49.848;9.620;2023-03-15T01:41:19;99301.53;;;2.04;97.50
61742;BME280;47650;49.848;9.620;2023-03-15T01:43:44;99309.88;;;1.96;97.34
61742;BME280;47650;49.848;9.620;2023-03-15T01:49:09;99314.84;;;1.86;98.99
61742;BME280;47650;49.848;9.620;2023-03-15T01:51:53;99315.91;;;1.84;99.58
61742;BME280;47650;49.848;9.620;2023-03-15T01:54:30;99308.44;;;1.78;100.00
61742;BME280;47650;49.848;9.620;2023-03-15T01:57:01;99330.97;;;1.93;100.00
61742;BME280;47650;49.848;9.620;2023-03-15T01:59:43;99311.78;;;1.80;100.00
61742;BME280;47650;49.848;9.620;2023-03-15T02:02:10;99331.28;;;1.88;100.00
61742;BME280;47650;49.848;9.620;2023-03-15T02:04:46;99320.72;;;1.90;100.00
61742;BME280;47650;49.848;9.620;2023-03-15T02:07:15;99334.75;;;1.89;99.67
61742;BME280;47650;49.848;9.620;2023-03-15T02:10:27;99317.50;;;1.72;99.39
61742;BME280;47650;49.848;9.620;2023-03-15T02:12:55;99336.44;;;1.76;99.90
61742;BME280;47650;49.848;9.620;2023-03-15T02:15:23;99342.59;;;1.75;99.07
61742;BME280;47650;49.848;9.620;2023-03-15T02:17:56;99323.03;;;1.53;97.99
61742;BME280;47650;49.848;9.620;2023-03-15T02:23:04;99340.13;;;1.30;97.05
61742;BME280;47650;49.848;9.620;2023-03-15T02:25:59;99346.94;;;1.18;96.84
61742;BME280;47650;49.848;9.620;2023-03-15T02:28:31;99351.03;;;1.08;97.29
61742;BME280;47650;49.848;9.620;2023-03-15T02:31:07;99312.38;;;0.84;98.50
61742;BME280;47650;49.848;9.620;2023-03-15T02:33:45;99350.28;;;1.06;98.58
61742;BME280;47650;49.848;9.620;2023-03-15T02:38:47;99353.88;;;0.89;100.00
61742;BME280;47650;49.848;9.620;2023-03-15T02:41:27;99329.81;;;0.53;100.00
61742;BME280;47650;49.848;9.620;2023-03-15T02:44:06;99363.50;;;0.88;100.00
61742;BME280;47650;49.848;9.620;2023-03-15T02:46:32;99333.25;;;0.70;100.00
61742;BME280;47650;49.848;9.620;2023-03-15T02:48:59;99365.09;;;1.05;100.00
61742;BME280;47650;49.848;9.620;2023-03-15T02:51:27;99376.00;;;1.12;100.00
61742;BME280;47650;49.848;9.620;2023-03-15T02:54:09;99384.41;;;1.17;100.00
61742;BME280;47650;49.848;9.620;2023-03-15T02:56:34;99344.66;;;0.83;100.00
61742;BME280;47650;49.848;9.620;2023-03-15T02:59:06;99362.50;;;0.75;100.00
61742;BME280;47650;49.848;9.620;2023-03-15T03:01:32;99363.84;;;0.82;100.00
61742;BME280;47650;49.848;9.620;2023-03-15T03:04:02;99377.28;;;0.90;100.00
61742;BME280;47650;49.848;9.620;2023-03-15T03:06:28;99394.09;;;1.01;100.00
61742;BME280;47650;49.848;9.620;2023-03-15T03:08:54;99281.69;;;0.29;99.72
61742;BME280;47650;49.848;9.620;2023-03-15T03:11:21;99411.78;;;0.96;100.00
61742;BME280;47650;49.848;9.620;2023-03-15T03:13:48;99388.63;;;0.75;100.00
61742;BME280;47650;49.848;9.620;2023-03-15T03:16:20;99375.88;;;0.54;100.00
61742;BME280;47650;49.848;9.620;2023-03-15T03:18:47;99430.00;;;0.81;100.00
61742;BME280;47650;49.848;9.620;2023-03-15T03:21:12;99432.41;;;0.70;100.00
61742;BME280;47650;49.848;9.620;2023-03-15T03:23:39;99434.38;;;0.81;100.00
61742;BME280;47650;49.848;9.620;2023-03-15T03:26:11;99432.22;;;0.73;100.00
61742;BME280;47650;49.848;9.620;2023-03-15T03:28:43;99434.25;;;0.68;100.00
61742;BME280;47650;49.848;9.620;2023-03-15T03:31:19;99437.69;;;0.68;100.00
61742;BME280;47650;49.848;9.620;2023-03-15T03:33:52;99432.22;;;0.57;100.00
61742;BME280;47650;49.848;9.620;2023-03-15T03:36:18;99422.84;;;0.39;100.00
61742;BME280;47650;49.848;9.620;2023-03-15T03:38:45;99421.31;;;0.50;100.00
61742;BME280;47650;49.848;9.620;2023-03-15T03:41:11;99442.00;;;0.53;100.00
61742;BME280;47650;49.848;9.620;2023-03-15T03:43:37;99442.00;;;0.53;100.00
61742;BME280;47650;49.848;9.620;2023-03-15T03:48:56;99448.75;;;0.58;100.00
61742;BME280;47650;49.848;9.620;2023-03-15T03:51:28;99411.66;;;0.21;100.00
61742;BME280;47650;49.848;9.620;2023-03-15T03:53:53;99439.69;;;0.33;100.00
61742;BME280;47650;49.848;9.620;2023-03-15T03:56:18;99386.59;;;-0.14;100.00
61742;BME280;47650;49.848;9.620;2023-03-15T03:58:59;99462.22;;;0.34;100.00
61742;BME280;47650;49.848;9.620;2023-03-15T04:01:32;99466.94;;;0.59;100.00
61742;BME280;47650;49.848;9.620;2023-03-15T04:03:58;99466.06;;;0.43;100.00
61742;BME280;47650;49.848;9.620;2023-03-15T04:06:29;99451.09;;;0.46;100.00
61742;BME280;47650;49.848;9.620;2023-03-15T04:08:56;99477.59;;;0.54;100.00
61742;BME280;47650;49.848;9.620;2023-03-15T04:11:22;99486.78;;;0.62;100.00
61742;BME280;47650;49.848;9.620;2023-03-15T04:13:51;99474.66;;;0.61;100.00
61742;BME280;47650;49.848;9.620;2023-03-15T04:16:30;99458.16;;;0.44;100.00
61742;BME280;47650;49.848;9.620;2023-03-15T04:18:57;99465.41;;;0.23;100.00
61742;BME280;47650;49.848;9.620;2023-03-15T04:21:23;99502.09;;;0.68;100.00
61742;BME280;47650;49.848;9.620;2023-03-15T04:23:48;99444.38;;;0.42;100.00
61742;BME280;47650;49.848;9.620;2023-03-15T04:26:20;99447.31;;;0.36;100.00
61742;BME280;47650;49.848;9.620;2023-03-15T04:28:46;99500.41;;;0.67;100.00
61742;BME280;47650;49.848;9.620;2023-03-15T04:31:25;99481.22;;;0.68;100.00
61742;BME280;47650;49.848;9.620;2023-03-15T04:33:58;99493.00;;;0.75;100.00
61742;BME280;47650;49.848;9.620;2023-03-15T04:36:25;99390.41;;;0.12;100.00
61742;BME280;47650;49.848;9.620;2023-03-15T04:38:58;99485.50;;;0.69;100.00
61742;BME280;47650;49.848;9.620;2023-03-15T04:41:33;99504.38;;;0.58;100.00
61742;BME280;47650;49.848;9.620;2023-03-15T04:43:59;99508.47;;;0.62;100.00
61742;BME280;47650;49.848;9.620;2023-03-15T04:46:24;99519.63;;;0.66;100.00
61742;BME280;47650;49.848;9.620;2023-03-15T04:48:51;99508.00;;;0.55;100.00
61742;BME280;47650;49.848;9.620;2023-03-15T04:51:22;99520.03;;;0.58;100.00
61742;BME280;47650;49.848;9.620;2023-03-15T04:53:49;99508.97;;;0.69;100.00
61742;BME280;47650;49.848;9.620;2023-03-15T04:56:14;99514.72;;;0.44;100.00
61742;BME280;47650;49.848;9.620;2023-03-15T04:58:45;99512.19;;;0.74;100.00
61742;BME280;47650;49.848;9.620;2023-03-15T05:01:32;99525.50;;;0.69;100.00
61742;BME280;47650;49.848;9.620;2023-03-15T05:04:09;99514.63;;;0.77;100.00
61742;BME280;47650;49.848;9.620;2023-03-15T05:06:34;99484.19;;;0.46;100.00
61742;BME280;47650;49.848;9.620;2023-03-15T05:09:00;99524.25;;;0.61;100.00
61742;BME280;47650;49.848;9.620;2023-03-15T05:11:27;99517.41;;;0.58;100.00
61742;BME280;47650;49.848;9.620;2023-03-15T05:13:54;99528.59;;;0.76;100.00
61742;BME280;47650;49.848;9.620;2023-03-15T05:16:27;99527.50;;;0.80;100.00
61742;BME280;47650;49.848;9.620;2023-03-15T05:18:52;99523.28;;;0.93;100.00
61742;BME280;47650;49.848;9.620;2023-03-15T05:21:18;99505.38;;;0.55;100.00
61742;BME280;47650;49.848;9.620;2023-03-15T05:23:43;99528.59;;;0.76;100.00
61742;BME280;47650;49.848;9.620;2023-03-15T05:26:09;99506.13;;;0.58;100.00
61742;BME280;47650;49.848;9.620;2023-03-15T05:28:34;99532.38;;;0.70;100.00
61742;BME280;47650;49.848;9.620;2023-03-15T05:31:08;99540.22;;;0.54;100.00
61742;BME280;47650;49.848;9.620;2023-03-15T05:33:35;99524.81;;;0.82;100.00
61742;BME280;47650;49.848;9.620;2023-03-15T05:36:01;99544.34;;;0.90;100.00
61742;BME280;47650;49.848;9.620;2023-03-15T05:38:27;99506.97;;;0.42;100.00
61742;BME280;47650;49.848;9.620;2023-03-15T05:40:53;99552.41;;;0.86;100.00
61742;BME280;47650;49.848;9.620;2023-03-15T05:43:18;99550.53;;;1.04;99.84
61742;BME280;47650;49.848;9.620;2023-03-15T05:45:44;99540.09;;;1.04;99.61
61742;BME280;47650;49.848;9.620;2023-03-15T05:48:18;99551.91;;;1.11;98.81
61742;BME280;47650;49.848;9.620;2023-03-15T05:50:45;99552.72;;;1.11;98.58
61742;BME280;47650;49.848;9.620;2023-03-15T05:53:16;99555.13;;;1.30;99.04
61742;BME280;47650;49.848;9.620;2023-03-15T05:55:56;99552.56;;;1.15;98.01
61742;BME280;47650;49.848;9.620;2023-03-15T05:58:21;99557.34;;;1.22;98.40
61742;BME280;47650;49.848;9.620;2023-03-15T06:00:47;99552.16;;;1.37;97.93
61742;BME280;47650;49.848;9.620;2023-03-15T06:03:14;99558.59;;;1.31;96.84
61742;BME280;47650;49.848;9.620;2023-03-15T06:05:41;99577.66;;;1.17;96.86
61742;BME280;47650;49.848;9.620;2023-03-15T06:08:06;99555.72;;;1.36;97.30
61742;BME280;47650;49.848;9.620;2023-03-15T06:10:33;99563.41;;;1.23;97.22
61742;BME280;47650;49.848;9.620;2023-03-15T06:12:58;99561.69;;;1.38;96.65
61742;BME280;47650;49.848;9.620;2023-03-15T06:15:30;99566.25;;;1.34;95.75
61742;BME280;47650;49.848;9.620;2023-03-15T06:17:57;99575.88;;;1.34;95.84
61742;BME280;47650;49.848;9.620;2023-03-15T06:20:24;99556.00;;;1.15;95.63
61742;BME280;47650;49.848;9.620;2023-03-15T06:22:50;99566.28;;;1.18;96.67
61742;BME280;47650;49.848;9.620;2023-03-15T06:25:17;99561.06;;;1.18;96.61
61742;BME280;47650;49.848;9.620;2023-03-15T06:27:54;99561.31;;;1.13;96.38
61742;BME280;47650;49.848;9.620;2023-03-15T06:30:19;99581.00;;;1.35;96.35
61742;BME280;47650;49.848;9.620;2023-03-15T06:32:47;99572.19;;;1.22;95.88
61742;BME280;47650;49.848;9.620;2023-03-15T06:35:17;99576.72;;;1.64;96.38
61742;BME280;47650;49.848;9.620;2023-03-15T06:37:46;99584.44;;;1.96;96.26
61742;BME280;47650;49.848;9.620;2023-03-15T06:40:12;99562.59;;;1.97;95.84
61742;BME280;47650;49.848;9.620;2023-03-15T06:42:38;99576.75;;;2.07;95.24
61742;BME280;47650;49.848;9.620;2023-03-15T06:45:11;99545.69;;;2.03;93.74
61742;BME280;47650;49.848;9.620;2023-03-15T06:47:42;99584.84;;;2.48;92.67
61742;BME280;47650;49.848;9.620;2023-03-15T06:50:09;99572.09;;;2.70;91.36
61742;BME280;47650;49.848;9.620;2023-03-15T06:52:36;99571.91;;;2.59;89.74
61742;BME280;47650;49.848;9.620;2023-03-15T06:55:03;99543.59;;;2.37;89.49
61742;BME280;47650;49.848;9.620;2023-03-15T06:57:37;99599.06;;;2.99;89.06
61742;BME280;47650;49.848;9.620;2023-03-15T07:00:04;99600.84;;;3.53;87.48
61742;BME280;47650;49.848;9.620;2023-03-15T07:02:45;99619.72;;;4.24;86.24
61742;BME280;47650;49.848;9.620;2023-03-15T07:05:10;99608.88;;;4.29;82.56
61742;BME280;47650;49.848;9.620;2023-03-15T07:07:38;99600.59;;;3.97;83.44
61742;BME280;47650;49.848;9.620;2023-03-15T07:10:04;99615.94;;;4.41;86.52
61742;BME280;47650;49.848;9.620;2023-03-15T07:12:37;99594.72;;;3.93;87.45
61742;BME280;47650;49.848;9.620;2023-03-15T07:15:03;99564.75;;;3.17;88.02
61742;BME280;47650;49.848;9.620;2023-03-15T07:17:29;99614.13;;;3.50;91.09
61742;BME280;47650;49.848;9.620;2023-03-15T07:19:56;99590.81;;;2.50;90.41
61742;BME280;47650;49.848;9.620;2023-03-15T07:22:21;99625.47;;;2.68;91.68
61742;BME280;47650;49.848;9.620;2023-03-15T07:24:47;99627.38;;;3.07;93.90
61742;BME280;47650;49.848;9.620;2023-03-15T07:27:13;99586.78;;;2.58;93.69
61742;BME280;47650;49.848;9.620;2023-03-15T07:29:39;99629.75;;;2.83;93.79
61742;BME280;47650;49.848;9.620;2023-03-15T07:32:07;99633.78;;;2.45;93.91
61742;BME280;47650;49.848;9.620;2023-03-15T07:34:33;99612.84;;;2.17;94.82
61742;BME280;47650;49.848;9.620;2023-03-15T07:36:58;99637.13;;;2.04;95.62
61742;BME280;47650;49.848;9.620;2023-03-15T07:39:24;99629.53;;;1.69;95.95
61742;BME280;47650;49.848;9.620;2023-03-15T07:41:51;99599.97;;;1.83;97.67
61742;BME280;47650;49.848;9.620;2023-03-15T07:44:19;99638.44;;;2.12;97.77
61742;BME280;47650;49.848;9.620;2023-03-15T07:46:44;99639.28;;;2.12;97.65
61742;BME280;47650;49.848;9.620;2023-03-15T07:49:10;99634.94;;;1.97;96.78
61742;BME280;47650;49.848;9.620;2023-03-15T07:51:36;99638.91;;;1.74;97.43
61742;BME280;47650;49.848;9.620;2023-03-15T07:54:07;99648.63;;;1.72;98.55
61742;BME280;47650;49.848;9.620;2023-03-15T07:56:32;99647.16;;;1.66;98.68
61742;BME280;47650;49.848;9.620;2023-03-15T07:58:58;99647.41;;;1.77;98.78
61742;BME280;47650;49.848;9.620;2023-03-15T08:01:24;99652.59;;;1.63;98.45
61742;BME280;47650;49.848;9.620;2023-03-15T08:03:51;99659.31;;;1.67;98.42
61742;BME280;47650;49.848;9.620;2023-03-15T08:08:45;99627.91;;;1.37;99.12
61742;BME280;47650;49.848;9.620;2023-03-15T08:11:21;99656.38;;;1.73;98.93
61742;BME280;47650;49.848;9.620;2023-03-15T08:13:47;99634.00;;;1.67;99.12
61742;BME280;47650;49.848;9.620;2023-03-15T08:16:12;99621.16;;;1.48;98.69
61742;BME280;47650;49.848;9.620;2023-03-15T08:18:37;99615.72;;;1.67;99.05
61742;BME280;47650;49.848;9.620;2023-03-15T08:21:04;99661.97;;;1.81;98.29
61742;BME280;47650;49.848;9.620;2023-03-15T08:23:29;99661.63;;;1.87;98.82
61742;BME280;47650;49.848;9.620;2023-03-15T08:25:56;99668.56;;;1.73;98.28
61742;BME280;47650;49.848;9.620;2023-03-15T08:28:29;99668.50;;;2.04;98.77
61742;BME280;47650;49.848;9.620;2023-03-15T08:30:55;99678.38;;;2.44;98.09
61742;BME280;47650;49.848;9.620;2023-03-15T08:33:20;99657.91;;;2.51;96.41
61742;BME280;47650;49.848;9.620;2023-03-15T08:35:51;99663.34;;;2.91;95.96
61742;BME280;47650;49.848;9.620;2023-03-15T08:38:18;99654.91;;;2.71;95.73
61742;BME280;47650;49.848;9.620;2023-03-15T08:40:43;99638.66;;;2.52;95.83
61742;BME280;47650;49.848;9.620;2023-03-15T08:43:10;99679.22;;;2.88;96.55
61742;BME280;47650;49.848;9.620;2023-03-15T08:45:58;99680.34;;;2.98;96.58
61742;BME280;47650;49.848;9.620;2023-03-15T08:48:26;99678.75;;;3.10;97.08
61742;BME280;47650;49.848;9.620;2023-03-15T08:51:05;99679.44;;;3.26;96.10
61742;BME280;47650;49.848;9.620;2023-03-15T08:53:33;99689.66;;;3.16;93.84
61742;BME280;47650;49.848;9.620;2023-03-15T08:56:08;99680.88;;;3.72;92.47
61742;BME280;47650;49.848;9.620;2023-03-15T08:58:34;99654.09;;;3.54;91.85
61742;BME280;47650;49.848;9.620;2023-03-15T09:01:00;99686.00;;;3.61;92.13
61742;BME280;47650;49.848;9.620;2023-03-15T09:04:01;99686.56;;;3.79;92.55
61742;BME280;47650;49.848;9.620;2023-03-15T09:06:29;99678.94;;;3.48;91.11
61742;BME280;47650;49.848;9.620;2023-03-15T09:08:57;99686.56;;;3.24;91.85
61742;BME280;47650;49.848;9.620;2023-03-15T09:11:29;99593.56;;;2.90;93.70
61742;BME280;47650;49.848;9.620;2023-03-15T09:13:54;99690.88;;;4.32;94.03
61742;BME280;47650;49.848;9.620;2023-03-15T09:16:25;99687.63;;;4.16;93.23
61742;BME280;47650;49.848;9.620;2023-03-15T09:18:50;99695.44;;;3.90;92.48
61742;BME280;47650;49.848;9.620;2023-03-15T09:21:16;99699.50;;;3.54;90.78
61742;BME280;47650;49.848;9.620;2023-03-15T09:23:41;99702.41;;;3.77;90.79
61742;BME280;47650;49.848;9.620;2023-03-15T09:26:06;99679.88;;;3.87;91.12
61742;BME280;47650;49.848;9.620;2023-03-15T09:28:32;99676.38;;;4.14;91.53
61742;BME280;47650;49.848;9.620;2023-03-15T09:30:58;99711.81;;;4.47;91.50
61742;BME280;47650;49.848;9.620;2023-03-15T09:33:23;99717.69;;;3.98;89.72
61742;BME280;47650;49.848;9.620;2023-03-15T09:35:51;99710.56;;;4.40;90.84
61742;BME280;47650;49.848;9.620;2023-03-15T09:38:23;99722.50;;;4.44;89.04
61742;BME280;47650;49.848;9.620;2023-03-15T09:40:48;99708.13;;;4.49;88.79
61742;BME280;47650;49.848;9.620;2023-03-15T09:48:55;99722.56;;;5.32;87.21
61742;BME280;47650;49.848;9.620;2023-03-15T09:51:37;99721.56;;;4.96;86.97
61742;BME280;47650;49.848;9.620;2023-03-15T09:54:15;99729.34;;;4.72;84.58
61742;BME280;47650;49.848;9.620;2023-03-15T09:56:52;99734.59;;;5.11;85.42
61742;BME280;47650;49.848;9.620;2023-03-15T09:59:19;99703.09;;;4.59;86.21
61742;BME280;47650;49.848;9.620;2023-03-15T10:01:47;99732.81;;;5.85;89.15
61742;BME280;47650;49.848;9.620;2023-03-15T10:06:54;99741.41;;;5.26;84.13
61742;BME280;47650;49.848;9.620;2023-03-15T10:09:22;99739.50;;;5.28;85.77
61742;BME280;47650;49.848;9.620;2023-03-15T10:12:19;99741.59;;;5.36;86.22
61742;BME280;47650;49.848;9.620;2023-03-15T10:20:07;99744.66;;;5.91;88.56
61742;BME280;47650;49.848;9.620;2023-03-15T10:22:42;99736.78;;;5.30;85.91
61742;BME280;47650;49.848;9.620;2023-03-15T10:25:26;99740.44;;;6.01;83.18
61742;BME280;47650;49.848;9.620;2023-03-15T10:30:36;99717.56;;;6.26;83.45
61742;BME280;47650;49.848;9.620;2023-03-15T10:35:45;99756.00;;;5.30;84.53
61742;BME280;47650;49.848;9.620;2023-03-15T10:38:18;99747.50;;;5.14;86.97
61742;BME280;47650;49.848;9.620;2023-03-15T10:43:25;99764.47;;;4.97;87.73
61742;BME280;47650;49.848;9.620;2023-03-15T10:46:07;99757.09;;;5.02;87.79
61742;BME280;47650;49.848;9.620;2023-03-15T10:48:35;99759.84;;;4.75;86.58
61742;BME280;47650;49.848;9.620;2023-03-15T10:51:04;99763.41;;;4.86;87.41
61742;BME280;47650;49.848;9.620;2023-03-15T10:53:30;99759.19;;;4.71;89.99
61742;BME280;47650;49.848;9.620;2023-03-15T10:56:00;99764.56;;;4.69;90.48
61742;BME280;47650;49.848;9.620;2023-03-15T11:01:07;99771.56;;;4.56;89.78
61742;BME280;47650;49.848;9.620;2023-03-15T11:03:35;99729.66;;;4.42;88.10
61742;BME280;47650;49.848;9.620;2023-03-15T11:06:02;99764.25;;;4.74;88.02
61742;BME280;47650;49.848;9.620;2023-03-15T11:08:40;99764.84;;;5.03;88.61
61742;BME280;47650;49.848;9.620;2023-03-15T11:11:06;99741.13;;;4.66;86.44
61742;BME280;47650;49.848;9.620;2023-03-15T11:18:34;99761.81;;;6.20;87.78
61742;BME280;47650;49.848;9.620;2023-03-15T11:21:02;99754.91;;;6.77;87.75
61742;BME280;47650;49.848;9.620;2023-03-15T11:23:34;99754.00;;;7.24;87.00
61742;BME280;47650;49.848;9.620;2023-03-15T11:26:01;99754.56;;;7.39;87.27
61742;BME280;47650;49.848;9.620;2023-03-15T11:28:30;99759.84;;;6.35;83.15
61742;BME280;47650;49.848;9.620;2023-03-15T11:30:57;99744.53;;;6.40;83.24
61742;BME280;47650;49.848;9.620;2023-03-15T11:33:37;99767.75;;;6.82;85.44
61742;BME280;47650;49.848;9.620;2023-03-15T11:36:06;99761.53;;;7.51;88.01
61742;BME280;47650;49.848;9.620;2023-03-15T11:38:43;99752.75;;;8.05;91.27
61742;BME280;47650;49.848;9.620;2023-03-15T11:41:28;99762.66;;;7.81;88.54
61742;BME280;47650;49.848;9.620;2023-03-15T11:47:02;99741.34;;;6.59;82.94
61742;BME280;47650;49.848;9.620;2023-03-15T11:52:07;99767.34;;;5.80;83.98
61742;BME280;47650;49.848;9.620;2023-03-15T11:54:34;99776.94;;;5.19;84.55
61742;BME280;47650;49.848;9.620;2023-03-15T11:59:51;99778.09;;;5.15;87.95
61742;BME280;47650;49.848;9.620;2023-03-15T12:04:48;99779.09;;;6.36;89.12
61742;BME280;47650;49.848;9.620;2023-03-15T12:09:46;99769.31;;;6.96;84.06
61742;BME280;47650;49.848;9.620;2023-03-15T12:17:50;99766.03;;;6.23;82.81
61742;BME280;47650;49.848;9.620;2023-03-15T12:22:50;99779.25;;;5.23;84.26
61742;BME280;47650;49.848;9.620;2023-03-15T12:25:47;99784.94;;;5.30;83.03
61742;BME280;47650;49.848;9.620;2023-03-15T12:28:40;99773.94;;;5.99;84.72
61742;BME280;47650;49.848;9.620;2023-03-15T12:31:08;99775.25;;;6.29;83.53
61742;BME280;47650;49.848;9.620;2023-03-15T12:33:54;99779.56;;;6.30;83.90
61742;BME280;47650;49.848;9.620;2023-03-15T12:36:40;99779.59;;;6.41;85.76
61742;BME280;47650;49.848;9.620;2023-03-15T12:41:47;99769.91;;;7.45;78.26
61742;BME280;47650;49.848;9.620;2023-03-15T12:47:00;99739.78;;;7.70;80.61
61742;BME280;47650;49.848;9.620;2023-03-15T12:51:57;99775.66;;;6.82;75.38
61742;BME280;47650;49.848;9.620;2023-03-15T12:54:26;99746.13;;;7.79;80.29
61742;BME280;47650;49.848;9.620;2023-03-15T12:57:00;99770.69;;;8.23;77.38
61742;BME280;47650;49.848;9.620;2023-03-15T13:02:32;99782.84;;;7.59;75.13
61742;BME280;47650;49.848;9.620;2023-03-15T13:15:41;99784.03;;;6.99;82.35
61742;BME280;47650;49.848;9.620;2023-03-15T13:18:13;99776.09;;;6.29;82.36
61742;BME280;47650;49.848;9.620;2023-03-15T13:20:56;99781.06;;;5.23;81.72
61742;BME280;47650;49.848;9.620;2023-03-15T13:23:28;99789.88;;;4.83;83.50
61742;BME280;47650;49.848;9.620;2023-03-15T13:29:31;99789.56;;;5.76;81.24
61742;BME280;47650;49.848;9.620;2023-03-15T13:31:37;99776.50;;;7.62;81.87
61742;BME280;47650;49.848;9.620;2023-03-15T13:34:18;99786.94;;;7.07;81.90
61742;BME280;47650;49.848;9.620;2023-03-15T13:37:02;99776.56;;;10.02;75.64
61742;BME280;47650;49.848;9.620;2023-03-15T13:39:33;99770.25;;;11.93;71.05
61742;BME280;47650;49.848;9.620;2023-03-15T13:42:01;99753.97;;;13.63;73.58
61742;BME280;47650;49.848;9.620;2023-03-15T13:44:28;99756.09;;;14.10;73.09
61742;BME280;47650;49.848;9.620;2023-03-15T13:46:56;99750.34;;;11.52;65.92
61742;BME280;47650;49.848;9.620;2023-03-15T13:49:29;99769.66;;;11.06;71.21
61742;BME280;47650;49.848;9.620;2023-03-15T13:51:56;99782.66;;;11.09;77.34
61742;BME280;47650;49.848;9.620;2023-03-15T13:54:32;99769.97;;;8.74;70.46
61742;BME280;47650;49.848;9.620;2023-03-15T13:57:16;99780.75;;;8.29;76.71
61742;BME280;47650;49.848;9.620;2023-03-15T13:59:57;99781.91;;;6.92;76.75
61742;BME280;47650;49.848;9.620;2023-03-15T14:02:34;99784.50;;;6.70;76.89
61742;BME280;47650;49.848;9.620;2023-03-15T14:05:18;99777.25;;;5.77;77.67
61742;BME280;47650;49.848;9.620;2023-03-15T14:08:04;99784.47;;;5.99;81.96
61742;BME280;47650;49.848;9.620;2023-03-15T14:10:57;99781.22;;;6.19;84.89
61742;BME280;47650;49.848;9.620;2023-03-15T14:14:00;99776.53;;;6.58;85.98
61742;BME280;47650;49.848;9.620;2023-03-15T14:16:42;99788.44;;;6.75;85.93
61742;BME280;47650;49.848;9.620;2023-03-15T14:21:45;99766.03;;;10.41;83.59
61742;BME280;47650;49.848;9.620;2023-03-15T14:24:21;99761.63;;;11.54;82.09
61742;BME280;47650;49.848;9.620;2023-03-15T14:26:58;99770.34;;;10.51;74.74
61742;BME280;47650;49.848;9.620;2023-03-15T14:29:36;99774.91;;;10.01;72.81
61742;BME280;47650;49.848;9.620;2023-03-15T14:32:07;99778.38;;;10.01;75.63
61742;BME280;47650;49.848;9.620;2023-03-15T14:37:06;99774.81;;;8.69;76.54
61742;BME280;47650;49.848;9.620;2023-03-15T14:42:00;99745.34;;;9.76;82.77
61742;BME280;47650;49.848;9.620;2023-03-15T14:44:25;99769.66;;;10.59;83.64
61742;BME280;47650;49.848;9.620;2023-03-15T14:46:52;99756.97;;;12.29;80.26
61742;BME280;47650;49.848;9.620;2023-03-15T14:49:23;99757.13;;;14.51;80.05
61742;BME280;47650;49.848;9.620;2023-03-15T14:52:02;99749.88;;;15.56;70.50
61742;BME280;47650;49.848;9.620;2023-03-15T14:54:28;99741.72;;;17.12;71.30
61742;BME280;47650;49.848;9.620;2023-03-15T14:56:55;99743.91;;;16.55;51.85
61742;BME280;47650;49.848;9.620;2023-03-15T14:59:21;99747.44;;;17.08;53.85
61742;BME280;47650;49.848;9.620;2023-03-15T15:01:57;99724.91;;;16.80;54.79